Time;durP1;ratioP1;P1;durP2;ratioP2;P2;SDS_P1;SDS_P2;PMS_P1;PMS_P2;Temp;Humidity;BMP_temperature;BMP_pressure;BME280_temperature;BME280_humidity;BME280_pressure;Samples;Min_cycle;Max_cycle;Signal;HPM_P1;HPM_P2
2022/06/11 00:04:10;;;;;;;0.38;0.30;;;17.40;52.10;19.50;94517.00;;;;10394632;28;45170;-59
2022/06/11 00:09:33;;;;;;;0.73;0.38;;;17.40;52.10;19.50;94517.00;;;;10394362;28;45467;-60
2022/06/11 00:14:54;;;;;;;0.57;0.28;;;17.40;52.10;19.50;94524.00;;;;10391607;28;45781;-59
2022/06/11 00:20:15;;;;;;;0.20;0.20;;;17.40;52.10;19.50;94526.00;;;;10388860;28;45193;-60
2022/06/11 00:25:37;;;;;;;0.30;0.30;;;17.40;52.10;19.50;94524.00;;;;10398949;28;45231;-60
2022/06/11 00:30:58;;;;;;;0.95;0.30;;;17.40;52.10;19.50;94511.00;;;;10401031;28;45224;-59
2022/06/11 00:36:19;;;;;;;0.30;0.30;;;17.40;52.10;19.50;94511.00;;;;10400815;28;45741;-60
2022/06/11 00:41:46;;;;;;;0.85;0.43;;;17.40;52.10;19.50;94507.00;;;;10400097;28;45260;-60
2022/06/11 00:47:14;;;;;;;0.75;0.30;;;17.40;52.10;19.50;94512.00;;;;10400505;28;45586;-59
2022/06/11 00:52:38;;;;;;;0.70;0.32;;;17.30;52.10;19.40;94518.00;;;;10401158;28;45402;-61
2022/06/11 00:58:04;;;;;;;0.52;0.32;;;17.40;52.10;19.40;94513.00;;;;10398395;28;45285;-60
2022/06/11 01:03:32;;;;;;;0.73;0.38;;;17.30;52.10;19.50;94519.00;;;;10395326;28;45170;-59
2022/06/11 01:09:00;;;;;;;0.60;0.30;;;17.30;52.20;19.40;94513.00;;;;10398619;28;45113;-61
2022/06/11 01:14:39;;;;;;;1.02;0.50;;;17.30;52.10;19.40;94509.00;;;;10400434;28;46016;-62
2022/06/11 01:20:15;;;;;;;0.73;0.40;;;17.30;52.20;19.40;94511.00;;;;10399771;28;45749;-59
2022/06/11 01:25:45;;;;;;;0.30;0.30;;;17.30;52.10;19.40;94506.00;;;;10399457;28;45247;-59
2022/06/11 01:31:14;;;;;;;0.30;0.30;;;17.30;52.10;19.40;94520.00;;;;10399549;28;45075;-60
2022/06/11 01:36:39;;;;;;;0.45;0.40;;;17.30;52.10;19.40;94511.00;;;;10398561;28;45202;-59
2022/06/11 01:42:05;;;;;;;0.45;0.32;;;17.30;52.10;19.40;94506.00;;;;10398922;28;46091;-59
2022/06/11 01:47:27;;;;;;;0.70;0.40;;;17.30;52.10;19.40;94505.00;;;;10398646;28;45291;-59
2022/06/11 01:53:17;;;;;;;0.35;0.20;;;17.30;52.20;19.40;94497.00;;;;10398557;28;45183;-58
2022/06/11 01:58:55;;;;;;;0.63;0.28;;;17.30;52.20;19.40;94500.00;;;;10398336;28;45055;-58
2022/06/11 02:04:28;;;;;;;0.50;0.30;;;17.30;52.20;19.40;94496.00;;;;10398316;28;45967;-59
2022/06/11 02:09:58;;;;;;;0.93;0.38;;;17.30;52.20;19.40;94506.00;;;;10397609;28;45126;-59
2022/06/11 02:15:25;;;;;;;0.20;0.20;;;17.30;52.20;19.40;94507.00;;;;10398055;28;45214;-59
2022/06/11 02:20:55;;;;;;;0.50;0.30;;;17.30;52.20;19.40;94510.00;;;;10397671;28;45116;-59
2022/06/11 02:26:20;;;;;;;0.25;0.25;;;17.30;52.20;19.40;94512.00;;;;10396833;28;45812;-59
2022/06/11 02:31:45;;;;;;;0.90;0.30;;;17.20;52.20;19.40;94512.00;;;;10397243;28;45173;-60
2022/06/11 02:37:11;;;;;;;0.63;0.30;;;17.30;52.20;19.40;94512.00;;;;10396740;28;45822;-59
2022/06/11 02:42:32;;;;;;;0.40;0.30;;;17.20;52.20;19.40;94512.00;;;;10396823;28;45195;-59
2022/06/11 02:47:55;;;;;;;0.45;0.30;;;17.30;52.20;19.30;94497.00;;;;10395433;28;45150;-60
2022/06/11 02:53:18;;;;;;;0.57;0.30;;;17.20;52.10;19.30;94493.00;;;;10397239;28;45094;-59
2022/06/11 02:58:38;;;;;;;0.32;0.30;;;17.20;52.20;19.30;94498.00;;;;10396133;28;45252;-59
2022/06/11 03:03:59;;;;;;;0.70;0.30;;;17.30;52.20;19.30;94507.00;;;;10397032;28;45188;-59
2022/06/11 03:09:32;;;;;;;0.30;0.28;;;17.20;52.10;19.30;94504.00;;;;10555010;27;45160;-59
2022/06/11 03:14:53;;;;;;;0.50;0.30;;;17.20;52.10;19.30;94497.00;;;;10513171;28;45242;-59
2022/06/11 03:20:17;;;;;;;0.30;0.20;;;17.20;52.10;19.30;94509.00;;;;10512319;28;45115;-59
2022/06/11 03:25:39;;;;;;;0.28;0.28;;;17.20;52.10;19.30;94519.00;;;;10512325;28;45216;-59
2022/06/11 03:31:01;;;;;;;0.20;0.20;;;17.20;52.80;19.30;94518.00;;;;10512460;28;45838;-59
2022/06/11 03:36:21;;;;;;;0.20;0.20;;;17.20;52.10;19.30;94504.00;;;;10512267;28;45815;-60
2022/06/11 03:41:44;;;;;;;0.47;0.40;;;17.20;52.20;19.30;94519.00;;;;10512927;28;45101;-61
2022/06/11 03:47:05;;;;;;;0.65;0.38;;;17.20;52.20;19.30;94520.00;;;;10512620;28;45164;-61
2022/06/11 03:52:28;;;;;;;0.55;0.20;;;17.20;52.20;19.30;94530.00;;;;10512249;28;45716;-62
2022/06/11 03:57:50;;;;;;;0.20;0.20;;;17.20;52.20;19.30;94520.00;;;;10512113;28;45232;-61
2022/06/11 04:03:13;;;;;;;0.30;0.20;;;17.20;52.20;19.30;94527.00;;;;10512140;28;45133;-61
2022/06/11 04:08:35;;;;;;;1.45;0.30;;;17.20;52.20;19.30;94526.00;;;;10511012;28;45127;-59
2022/06/11 04:13:56;;;;;;;0.63;0.30;;;17.20;52.20;19.40;94553.00;;;;10511894;28;45839;-59
2022/06/11 04:19:25;;;;;;;0.73;0.40;;;17.30;52.20;19.40;94538.00;;;;10491595;28;45175;-60
2022/06/11 04:24:46;;;;;;;0.50;0.30;;;17.30;52.10;19.40;94549.00;;;;10483382;28;45131;-59
2022/06/11 04:30:11;;;;;;;1.10;0.30;;;17.30;52.00;19.50;94543.00;;;;10482799;28;45134;-60
2022/06/11 04:35:32;;;;;;;0.90;0.30;;;17.40;52.00;19.50;94549.00;;;;10482971;28;45111;-59
2022/06/11 04:40:54;;;;;;;0.55;0.25;;;17.40;51.90;19.50;94553.00;;;;10482977;28;45356;-60
2022/06/11 04:46:17;;;;;;;0.38;0.20;;;17.40;51.90;19.50;94545.00;;;;10482596;28;45106;-59
2022/06/11 04:51:38;;;;;;;0.63;0.40;;;17.50;51.90;19.60;94555.00;;;;10482369;28;45143;-59
2022/06/11 04:56:59;;;;;;;0.65;0.38;;;17.50;51.90;19.60;94565.00;;;;10482068;28;45175;-61
2022/06/11 05:02:22;;;;;;;0.55;0.20;;;17.50;51.90;19.60;94563.00;;;;10481879;28;45167;-60
2022/06/11 05:07:43;;;;;;;0.90;0.30;;;17.50;51.80;19.60;94577.00;;;;10481217;28;45133;-60
2022/06/11 05:13:05;;;;;;;0.43;0.30;;;17.60;51.80;19.60;94568.00;;;;10480670;28;45123;-60
2022/06/11 05:18:30;;;;;;;0.30;0.20;;;17.60;51.80;19.70;94570.00;;;;10480210;28;45124;-61
2022/06/11 05:23:50;;;;;;;0.93;0.30;;;17.60;51.90;19.70;94571.00;;;;10480686;28;45222;-59
2022/06/11 05:29:18;;;;;;;0.73;0.35;;;17.60;52.60;19.70;94578.00;;;;10479908;28;46119;-58
2022/06/11 05:34:40;;;;;;;0.40;0.30;;;17.60;51.90;19.70;94570.00;;;;10480689;28;45232;-60
2022/06/11 05:40:00;;;;;;;1.33;0.50;;;17.60;52.00;19.70;94587.00;;;;10479939;28;45898;-59
2022/06/11 05:45:26;;;;;;;1.65;0.40;;;17.60;51.90;19.70;94584.00;;;;10480324;28;45122;-59
2022/06/11 05:50:52;;;;;;;1.30;0.30;;;17.70;52.00;19.70;94599.00;;;;10480426;28;45126;-60
2022/06/11 05:56:12;;;;;;;0.60;0.20;;;17.70;52.00;19.80;94594.00;;;;10479602;28;45176;-59
2022/06/11 06:01:39;;;;;;;0.30;0.30;;;17.70;52.00;19.80;94608.00;;;;10479653;28;45143;-61
2022/06/11 06:07:01;;;;;;;0.73;0.30;;;17.70;52.00;19.80;94589.00;;;;10478796;28;45199;-61
2022/06/11 06:12:21;;;;;;;0.98;0.30;;;17.70;51.90;19.80;94586.00;;;;10479548;28;45950;-60
2022/06/11 06:17:43;;;;;;;1.58;0.43;;;17.70;51.90;19.80;94597.00;;;;10478354;28;45270;-60
2022/06/11 06:23:05;;;;;;;0.85;0.47;;;17.70;51.90;19.80;94593.00;;;;10478319;28;45132;-59
2022/06/11 06:28:25;;;;;;;0.60;0.40;;;17.70;51.90;19.80;94608.00;;;;10478525;28;45101;-59
2022/06/11 06:33:50;;;;;;;0.60;0.50;;;17.70;52.00;19.80;94614.00;;;;10478639;28;45746;-59
2022/06/11 06:39:12;;;;;;;0.47;0.30;;;17.70;52.00;19.80;94610.00;;;;10478109;28;45851;-58
2022/06/11 06:44:33;;;;;;;1.08;0.32;;;17.70;52.00;19.80;94619.00;;;;10479091;28;45161;-61
2022/06/11 06:49:54;;;;;;;0.40;0.32;;;17.70;52.10;19.90;94604.00;;;;10476920;28;45111;-58
2022/06/11 06:55:16;;;;;;;0.55;0.30;;;17.80;52.00;19.90;94618.00;;;;10478203;28;45792;-60
2022/06/11 07:00:37;;;;;;;2.70;0.30;;;17.80;52.10;19.90;94611.00;;;;10477239;28;45120;-58
2022/06/11 07:05:57;;;;;;;0.30;0.30;;;17.80;52.00;19.90;94621.00;;;;10477699;28;45284;-59
2022/06/11 07:11:20;;;;;;;0.80;0.40;;;17.80;52.10;19.90;94626.00;;;;10477545;28;45211;-60
2022/06/11 07:16:46;;;;;;;1.77;0.52;;;17.80;52.10;19.90;94625.00;;;;10477600;28;45430;-60
2022/06/11 07:22:15;;;;;;;0.82;0.30;;;17.80;52.10;19.90;94627.00;;;;10477004;28;45168;-61
2022/06/11 07:27:42;;;;;;;0.77;0.30;;;17.80;52.00;19.90;94616.00;;;;10476964;28;45108;-59
2022/06/11 07:33:06;;;;;;;;;;;17.80;52.20;19.90;94621.00;;;;10477550;28;45754;-60
2022/06/11 07:38:26;;;;;;;2.22;0.40;;;17.80;52.20;19.90;94617.00;;;;10476551;28;45148;-60
2022/06/11 07:43:48;;;;;;;1.27;0.40;;;17.80;52.20;19.90;94629.00;;;;10476713;28;45130;-60
2022/06/11 07:49:08;;;;;;;1.92;0.50;;;17.80;52.20;19.90;94621.00;;;;10476218;28;45130;-60
2022/06/11 07:54:29;;;;;;;1.27;0.40;;;17.90;52.20;19.90;94612.00;;;;10481053;28;45112;-60
2022/06/11 07:59:51;;;;;;;3.20;0.50;;;17.80;52.60;19.90;94625.00;;;;10483977;28;45776;-60
2022/06/11 08:05:11;;;;;;;1.23;0.50;;;17.80;52.50;19.80;94628.00;;;;10483683;28;45283;-60
2022/06/11 08:10:32;;;;;;;0.98;0.52;;;17.70;52.70;19.80;94620.00;;;;10483885;28;45174;-61
2022/06/11 08:15:55;;;;;;;1.52;0.50;;;17.70;52.60;19.90;94627.00;;;;10483252;28;45179;-60
2022/06/11 08:21:15;;;;;;;1.55;0.60;;;17.70;52.60;19.90;94630.00;;;;10482885;28;45271;-60
2022/06/11 08:26:37;;;;;;;2.13;0.40;;;17.70;52.60;19.90;94629.00;;;;10483438;28;45305;-60
2022/06/11 08:31:59;;;;;;;1.17;0.40;;;17.80;52.50;19.90;94630.00;;;;10482672;28;45756;-60
2022/06/11 08:37:19;;;;;;;0.50;0.50;;;17.80;52.60;19.90;94615.00;;;;10482284;28;45204;-61
2022/06/11 08:42:43;;;;;;;0.65;0.50;;;17.80;52.50;19.90;94632.00;;;;10481975;28;45236;-60
2022/06/11 08:48:17;;;;;;;1.58;0.60;;;17.80;52.50;19.90;94623.00;;;;10482362;28;45302;-61
2022/06/11 08:53:40;;;;;;;1.77;0.82;;;17.80;52.60;19.90;94626.00;;;;10482714;28;45099;-60
2022/06/11 08:59:30;;;;;;;0.88;0.52;;;17.80;52.60;19.90;94624.00;;;;10481490;28;45085;-59
2022/06/11 09:05:24;;;;;;;1.23;0.40;;;17.80;52.50;19.90;94616.00;;;;10479354;28;45721;-60
2022/06/11 09:11:05;;;;;;;0.77;0.57;;;17.80;52.60;19.90;94609.00;;;;10452681;28;45179;-60
2022/06/11 09:16:55;;;;;;;2.85;0.40;;;17.80;52.70;19.90;94629.00;;;;10439809;28;45164;-59
2022/06/11 09:22:40;;;;;;;1.20;0.50;;;17.80;52.60;19.90;94626.00;;;;10438552;28;45696;-61
2022/06/11 09:28:09;;;;;;;1.48;0.60;;;17.70;52.60;19.90;94613.00;;;;10438722;28;45180;-60
2022/06/11 09:33:40;;;;;;;1.30;0.60;;;17.70;52.70;19.90;94624.00;;;;10439240;28;45114;-61
2022/06/11 09:39:14;;;;;;;1.40;0.60;;;17.70;52.80;19.90;94627.00;;;;10438171;28;46025;-60
2022/06/11 09:44:41;;;;;;;0.60;0.50;;;17.70;52.90;19.80;94631.00;;;;10436849;28;45277;-60
2022/06/11 09:50:17;;;;;;;;;;;17.70;53.00;19.80;94622.00;;;;10437479;28;45210;-60
2022/06/11 09:55:46;;;;;;;1.50;0.50;;;17.70;53.10;19.80;94619.00;;;;10438375;28;45272;-61
2022/06/11 10:01:20;;;;;;;1.42;0.60;;;17.70;53.00;19.80;94623.00;;;;10437797;28;45229;-60
2022/06/11 10:06:48;;;;;;;0.85;0.50;;;17.70;53.30;19.80;94640.00;;;;10437919;28;45766;-60
2022/06/11 10:12:19;;;;;;;1.75;0.43;;;17.70;53.30;19.80;94631.00;;;;10437699;28;45158;-60
2022/06/11 10:17:53;;;;;;;1.33;0.50;;;17.60;53.20;19.80;94619.00;;;;10436509;28;45195;-60
2022/06/11 10:23:21;;;;;;;1.48;0.52;;;17.60;53.20;19.70;94618.00;;;;10437597;28;45188;-60
2022/06/11 10:28:49;;;;;;;1.55;0.85;;;17.60;53.30;19.80;94621.00;;;;10437283;28;45125;-61
2022/06/11 10:34:12;;;;;;;;;;;17.60;53.30;19.80;94618.00;;;;10437816;28;45106;-60
2022/06/11 10:39:45;;;;;;;2.25;0.63;;;17.60;53.30;19.80;94624.00;;;;10436603;28;45680;-60
2022/06/11 10:45:14;;;;;;;2.47;0.70;;;17.60;53.20;19.80;94618.00;;;;10437045;28;45156;-61
2022/06/11 10:50:37;;;;;;;1.92;0.40;;;17.60;53.20;19.80;94617.00;;;;10436675;28;45233;-60
2022/06/11 10:56:03;;;;;;;1.42;0.70;;;17.60;53.30;19.80;94618.00;;;;10436409;28;45205;-60
2022/06/11 11:01:31;;;;;;;2.03;0.60;;;17.60;53.20;19.80;94629.00;;;;10436282;28;45309;-62
2022/06/11 11:07:14;;;;;;;1.15;0.55;;;17.60;53.10;19.80;94608.00;;;;10436128;28;45872;-60
2022/06/11 11:12:37;;;;;;;0.70;0.60;;;17.60;52.90;19.70;94615.00;;;;10435899;28;45903;-60
2022/06/11 11:18:09;;;;;;;1.27;0.50;;;17.60;52.90;19.80;94614.00;;;;10436034;28;45148;-60
2022/06/11 11:23:35;;;;;;;1.15;0.60;;;17.70;53.00;19.80;94605.00;;;;10435793;28;45803;-61
2022/06/11 11:29:01;;;;;;;1.27;0.50;;;17.70;52.90;19.80;94603.00;;;;10439015;28;45140;-60
2022/06/11 11:34:29;;;;;;;0.95;0.60;;;17.70;53.00;19.80;94590.00;;;;10442616;28;45105;-62
2022/06/11 11:39:53;;;;;;;1.35;0.50;;;17.70;53.00;19.80;94586.00;;;;10441866;28;45173;-60
2022/06/11 11:45:23;;;;;;;1.48;0.70;;;17.60;53.60;19.80;94583.00;;;;10442759;28;45220;-62
2022/06/11 11:50:45;;;;;;;1.17;0.60;;;17.70;53.00;19.80;94595.00;;;;10442753;28;45192;-62
2022/06/11 11:56:21;;;;;;;1.80;0.60;;;17.60;52.90;19.80;94577.00;;;;10442617;28;45209;-60
2022/06/11 12:01:43;;;;;;;0.60;0.40;;;17.60;52.90;19.80;94583.00;;;;10481813;28;45383;-60
2022/06/11 12:07:08;;;;;;;2.22;0.60;;;17.60;52.90;19.80;94566.00;;;;10474431;28;45314;-60
2022/06/11 12:12:34;;;;;;;0.90;0.60;;;17.60;52.90;19.80;94576.00;;;;10483756;28;45105;-60
2022/06/11 12:18:00;;;;;;;1.23;0.60;;;17.70;53.00;19.80;94567.00;;;;10483653;28;45893;-59
2022/06/11 12:23:32;;;;;;;1.15;0.68;;;17.70;52.90;19.80;94560.00;;;;10483529;28;45107;-62
2022/06/11 12:29:00;;;;;;;0.50;0.50;;;17.70;52.90;19.80;94569.00;;;;10482855;28;45775;-60
2022/06/11 12:34:25;;;;;;;0.63;0.40;;;17.70;53.60;19.80;94555.00;;;;10481431;28;45301;-60
2022/06/11 12:40:03;;;;;;;1.83;0.60;;;17.70;52.80;19.80;94565.00;;;;10480440;28;45787;-60
2022/06/11 12:45:32;;;;;;;1.33;0.60;;;17.70;52.80;19.80;94563.00;;;;10482791;28;45898;-60
2022/06/11 12:51:03;;;;;;;1.60;0.50;;;17.70;52.80;19.80;94562.00;;;;10482694;28;45106;-61
2022/06/11 12:56:59;;;;;;;1.35;0.52;;;17.70;52.80;19.80;94558.00;;;;10481655;28;45246;-61
2022/06/11 13:02:35;;;;;;;0.65;0.50;;;17.70;52.80;19.90;94553.00;;;;10477193;28;45120;-60
2022/06/11 13:08:10;;;;;;;0.65;0.60;;;17.80;52.70;19.90;94562.00;;;;10480897;28;45926;-61
2022/06/11 13:13:51;;;;;;;0.90;0.40;;;17.80;52.60;19.90;94556.00;;;;10484308;28;45117;-58
2022/06/11 13:19:34;;;;;;;0.93;0.40;;;17.80;52.80;19.90;94552.00;;;;10483177;28;45183;-60
2022/06/11 13:25:11;;;;;;;0.70;0.50;;;17.80;52.80;19.90;94552.00;;;;10481376;28;45236;-59
2022/06/11 13:30:46;;;;;;;;;;;17.80;52.80;19.90;94556.00;;;;10481566;28;45176;-58
2022/06/11 13:36:17;;;;;;;0.40;0.40;;;18.00;52.90;19.90;94550.00;;;;10480915;28;45201;-59
2022/06/11 13:41:53;;;;;;;2.53;0.70;;;17.90;52.80;19.90;94544.00;;;;10480114;28;45870;-60
2022/06/11 13:47:51;;;;;;;2.05;0.45;;;17.80;52.70;20.00;94532.00;;;;10480338;28;45054;-60
2022/06/11 13:59:49;;;;;;;1.85;0.50;;;17.90;52.80;20.00;94519.00;;;;10479861;28;45801;-59
2022/06/11 14:05:19;;;;;;;0.77;0.50;;;17.90;52.80;20.00;94534.00;;;;10479139;28;45212;-61
2022/06/11 14:10:42;;;;;;;1.55;0.60;;;17.90;52.80;20.00;94526.00;;;;10479469;28;45443;-59
2022/06/11 14:16:38;;;;;;;1.05;0.50;;;17.90;52.80;20.00;94515.00;;;;10479321;28;45758;-57
2022/06/11 14:22:00;;;;;;;1.05;0.50;;;17.90;52.80;20.00;94528.00;;;;10479810;28;45277;-59
2022/06/11 14:27:35;;;;;;;0.90;0.50;;;17.90;52.70;20.00;94515.00;;;;10479257;28;45207;-59
2022/06/11 14:33:05;;;;;;;1.45;0.57;;;17.90;52.70;20.10;94523.00;;;;10478755;28;45792;-59
2022/06/11 14:38:45;;;;;;;0.75;0.60;;;17.90;52.70;20.10;94525.00;;;;10478279;28;45108;-59
2022/06/11 14:44:23;;;;;;;1.30;0.57;;;18.00;52.70;20.10;94509.00;;;;10479196;28;45233;-59
2022/06/11 14:49:52;;;;;;;0.45;0.45;;;18.00;52.70;20.10;94506.00;;;;10478413;28;45128;-58
2022/06/11 14:55:31;;;;;;;1.02;0.50;;;18.00;52.60;20.10;94502.00;;;;10478414;28;46219;-59
2022/06/11 15:01:02;;;;;;;0.77;0.40;;;18.00;52.60;20.10;94514.00;;;;10478018;28;45177;-59
2022/06/11 15:06:41;;;;;;;0.90;0.50;;;18.00;52.60;20.20;94514.00;;;;10477018;28;45155;-59
2022/06/11 15:12:26;;;;;;;0.82;0.55;;;18.10;52.60;20.20;94515.00;;;;10477694;28;45213;-59
2022/06/11 15:17:52;;;;;;;0.80;0.43;;;18.10;52.60;20.20;94499.00;;;;10477990;28;45692;-59
2022/06/11 15:23:16;;;;;;;1.00;0.50;;;18.10;52.50;20.20;94507.00;;;;10477367;28;45116;-60
2022/06/11 15:28:38;;;;;;;2.17;0.50;;;18.10;52.60;20.20;94495.00;;;;10476838;28;45700;-60
2022/06/11 15:34:01;;;;;;;1.80;0.60;;;18.10;52.60;20.30;94496.00;;;;10477173;28;45785;-59
2022/06/11 15:39:23;;;;;;;2.00;0.60;;;18.20;52.50;20.30;94508.00;;;;10477181;28;45178;-58
2022/06/11 15:44:46;;;;;;;2.53;0.52;;;18.20;52.30;20.30;94501.00;;;;10477293;28;45200;-59
2022/06/11 15:50:17;;;;;;;1.13;0.50;;;18.20;52.30;20.30;94508.00;;;;10476489;28;45196;-59
2022/06/11 15:55:40;;;;;;;1.05;0.60;;;18.20;52.30;20.30;94485.00;;;;10476669;28;45818;-59
2022/06/11 16:01:12;;;;;;;1.38;0.57;;;18.30;52.30;20.40;94512.00;;;;10476755;28;45236;-61
2022/06/11 16:06:33;;;;;;;0.80;0.47;;;18.30;52.20;20.40;94503.00;;;;10476165;28;45103;-59
2022/06/11 16:11:58;;;;;;;1.83;0.60;;;18.30;52.10;20.40;94483.00;;;;10470182;28;45148;-60
2022/06/11 16:17:26;;;;;;;0.65;0.50;;;18.30;52.20;20.50;94497.00;;;;10468316;28;45732;-60
2022/06/11 16:22:50;;;;;;;0.68;0.60;;;18.40;52.20;20.50;94488.00;;;;10440956;28;45272;-58
2022/06/11 16:28:18;;;;;;;0.93;0.60;;;18.40;52.10;20.50;94476.00;;;;10440901;28;45165;-58
2022/06/11 16:33:48;;;;;;;2.28;0.70;;;18.40;52.20;20.50;94475.00;;;;10441572;28;45245;-60
2022/06/11 16:39:15;;;;;;;1.02;0.47;;;18.40;52.10;20.60;94495.00;;;;10469655;28;45213;-59
2022/06/11 16:44:37;;;;;;;0.70;0.55;;;18.50;52.10;20.60;94503.00;;;;10463235;28;45685;-58
2022/06/11 17:01:28;;;;;;;1.17;0.50;;;18.50;52.60;20.60;94500.00;;;;10477950;28;45770;-58
2022/06/11 17:07:04;;;;;;;0.40;0.40;;;18.50;51.90;20.70;94498.00;;;;10478385;28;45699;-57
2022/06/11 17:12:39;;;;;;;0.32;0.32;;;18.60;51.80;20.70;94501.00;;;;10481845;28;45200;-58
2022/06/11 17:18:19;;;;;;;1.52;0.43;;;18.60;51.70;20.70;94503.00;;;;10478358;28;45212;-59
2022/06/11 17:23:46;;;;;;;0.40;0.40;;;18.60;51.50;20.70;94507.00;;;;10476061;28;45459;-59
2022/06/11 17:29:15;;;;;;;0.47;0.45;;;18.60;51.50;20.70;94506.00;;;;10480506;28;45181;-59
2022/06/11 17:34:36;;;;;;;0.55;0.40;;;18.60;51.40;20.70;94504.00;;;;10480857;28;45721;-60
2022/06/11 17:40:01;;;;;;;1.58;0.40;;;18.60;51.50;20.70;94515.00;;;;10480138;28;45145;-57
2022/06/11 17:45:25;;;;;;;1.20;0.40;;;18.60;51.50;20.70;94508.00;;;;10480655;28;45740;-58
2022/06/11 17:50:46;;;;;;;1.05;0.50;;;18.60;51.60;20.70;94517.00;;;;10480379;28;45242;-59
2022/06/11 17:56:12;;;;;;;0.47;0.30;;;18.60;51.60;20.70;94519.00;;;;10480044;28;45198;-58
2022/06/11 18:01:35;;;;;;;1.80;0.50;;;18.50;51.60;20.60;94516.00;;;;10479823;28;45875;-59
2022/06/11 18:06:55;;;;;;;0.32;0.32;;;18.50;51.60;20.60;94520.00;;;;10479481;28;45123;-59
2022/06/11 18:12:17;;;;;;;0.63;0.50;;;18.50;51.60;20.60;94518.00;;;;10479937;28;45180;-59
2022/06/11 18:17:38;;;;;;;0.40;0.40;;;18.50;51.60;20.60;94519.00;;;;10479807;28;45281;-60
2022/06/11 18:28:40;;;;;;;0.40;0.40;;;18.50;51.60;20.50;94523.00;;;;10478910;28;45191;-58
2022/06/11 18:34:00;;;;;;;1.02;0.38;;;18.40;51.60;20.50;94522.00;;;;10478967;28;45226;-58
2022/06/11 18:39:21;;;;;;;0.50;0.40;;;18.40;51.60;20.50;94526.00;;;;10478270;28;45689;-60
2022/06/11 18:44:43;;;;;;;0.50;0.47;;;18.40;51.60;20.50;94524.00;;;;10479227;28;45198;-59
2022/06/11 18:50:05;;;;;;;1.20;0.50;;;18.40;51.70;20.40;94528.00;;;;10478135;28;45776;-60
2022/06/11 18:55:27;;;;;;;0.40;0.40;;;18.30;51.60;20.40;94528.00;;;;10478619;28;45109;-59
2022/06/11 19:00:49;;;;;;;0.38;0.30;;;18.30;51.70;20.40;94522.00;;;;10477927;28;45166;-60
2022/06/11 19:06:09;;;;;;;0.43;0.35;;;18.30;51.80;20.40;94521.00;;;;10477743;28;45226;-60
2022/06/11 19:11:30;;;;;;;0.20;0.20;;;18.30;51.90;20.40;94535.00;;;;10477833;28;45225;-61
2022/06/11 19:16:52;;;;;;;0.38;0.38;;;18.20;51.90;20.40;94531.00;;;;10477657;28;45217;-59
2022/06/11 19:22:13;;;;;;;0.60;0.40;;;18.20;51.90;20.30;94537.00;;;;10477579;28;45120;-59
2022/06/11 19:27:34;;;;;;;0.30;0.30;;;18.20;52.00;20.30;94519.00;;;;10477557;28;45242;-58
2022/06/11 19:32:56;;;;;;;0.90;0.32;;;18.20;52.00;20.30;94542.00;;;;10477228;28;45878;-59
2022/06/11 19:38:20;;;;;;;0.52;0.30;;;18.20;52.00;20.30;94542.00;;;;10476504;28;45875;-60
2022/06/11 19:43:49;;;;;;;0.30;0.30;;;18.20;52.10;20.30;94555.00;;;;10481332;28;45684;-59
2022/06/11 19:49:12;;;;;;;0.28;0.28;;;18.10;52.10;20.30;94537.00;;;;10482324;28;45159;-61
2022/06/11 19:54:32;;;;;;;0.55;0.30;;;18.10;52.10;20.20;94537.00;;;;10484253;28;45102;-59
2022/06/11 19:59:54;;;;;;;0.52;0.40;;;18.10;52.10;20.20;94563.00;;;;10482464;28;45248;-59
2022/06/11 20:05:16;;;;;;;0.32;0.30;;;18.10;52.10;20.20;94548.00;;;;10477821;28;45317;-58
2022/06/11 20:10:36;;;;;;;0.40;0.30;;;18.10;52.20;20.20;94560.00;;;;10482736;28;45176;-59
2022/06/11 20:15:57;;;;;;;0.30;0.30;;;18.10;52.20;20.20;94563.00;;;;10461429;28;45284;-59
2022/06/11 20:21:19;;;;;;;0.30;0.30;;;18.00;52.10;20.20;94554.00;;;;10474111;28;45821;-58
2022/06/11 20:26:40;;;;;;;0.20;0.20;;;18.00;52.20;20.20;94552.00;;;;10439930;28;45241;-58
2022/06/11 20:32:01;;;;;;;0.30;0.30;;;18.00;52.20;20.10;94546.00;;;;10447456;28;45249;-59
2022/06/11 20:37:25;;;;;;;0.30;0.30;;;18.00;52.20;20.10;94559.00;;;;10460378;28;45225;-59
2022/06/11 20:42:46;;;;;;;0.30;0.30;;;18.00;52.20;20.10;94548.00;;;;10449470;28;46002;-60
2022/06/11 20:48:08;;;;;;;0.30;0.30;;;18.00;52.30;20.10;94559.00;;;;10439356;28;45220;-59
2022/06/11 20:53:30;;;;;;;0.47;0.20;;;18.00;52.30;20.10;94557.00;;;;10439951;28;45669;-58
2022/06/11 20:58:51;;;;;;;0.30;0.30;;;18.00;52.30;20.10;94565.00;;;;10439157;28;45212;-59
2022/06/11 21:04:11;;;;;;;0.40;0.30;;;17.90;52.20;20.10;94544.00;;;;10439861;28;45680;-58
2022/06/11 21:09:33;;;;;;;0.55;0.30;;;18.00;52.30;20.10;94562.00;;;;10438449;28;45164;-58
2022/06/11 21:14:54;;;;;;;0.25;0.25;;;17.90;52.20;20.10;94542.00;;;;10439521;28;45126;-60
2022/06/11 21:20:28;;;;;;;0.50;0.22;;;17.90;52.20;20.00;94553.00;;;;10438952;28;45735;-58
2022/06/11 21:25:50;;;;;;;0.30;0.30;;;17.90;52.30;20.00;94542.00;;;;10438284;28;45205;-58
2022/06/11 21:31:10;;;;;;;0.25;0.25;;;17.90;52.20;20.00;94544.00;;;;10436962;28;45167;-59
2022/06/11 21:36:31;;;;;;;0.30;0.25;;;17.90;52.30;20.00;94554.00;;;;10434037;28;45409;-58
2022/06/11 21:41:53;;;;;;;0.30;0.25;;;17.90;52.30;20.00;94550.00;;;;10427567;22;45193;-65
2022/06/11 21:47:17;;;;;;;0.30;0.30;;;17.90;52.30;20.00;94558.00;;;;10397242;28;45337;-64
2022/06/11 21:52:39;;;;;;;0.40;0.32;;;17.90;52.20;20.00;94555.00;;;;10395910;28;45108;-64
2022/06/11 21:58:02;;;;;;;0.65;0.30;;;17.90;52.30;20.00;94555.00;;;;10397011;28;45805;-64
2022/06/11 22:03:22;;;;;;;0.55;0.30;;;17.90;52.30;20.00;94553.00;;;;10392653;28;45191;-65
2022/06/11 22:08:44;;;;;;;0.40;0.30;;;17.90;52.30;20.00;94539.00;;;;10393684;28;45771;-64
2022/06/11 22:14:06;;;;;;;0.20;0.20;;;17.90;52.30;19.90;94545.00;;;;10396287;28;45360;-64
2022/06/11 22:19:27;;;;;;;0.30;0.30;;;17.80;52.30;20.00;94551.00;;;;10396443;28;45177;-64
2022/06/11 22:24:52;;;;;;;0.45;0.20;;;17.80;52.20;19.90;94546.00;;;;10396867;28;45245;-64
2022/06/11 22:30:15;;;;;;;0.38;0.22;;;17.80;52.30;19.90;94554.00;;;;10396041;28;45311;-64
2022/06/11 22:35:41;;;;;;;0.63;0.30;;;17.80;52.30;19.90;94538.00;;;;10396151;28;45777;-64
2022/06/11 22:41:01;;;;;;;0.45;0.20;;;17.80;52.30;19.90;94549.00;;;;10395542;28;45786;-64
2022/06/11 22:46:25;;;;;;;0.22;0.22;;;17.80;52.30;19.90;94553.00;;;;10395819;28;45760;-64
2022/06/11 22:51:47;;;;;;;0.28;0.20;;;17.80;52.30;19.90;94556.00;;;;10395708;28;45190;-65
2022/06/11 22:57:08;;;;;;;0.20;0.20;;;17.80;52.30;19.90;94539.00;;;;10395505;28;45845;-64
2022/06/11 23:02:31;;;;;;;0.50;0.40;;;17.80;52.40;19.90;94545.00;;;;10395420;28;45263;-64
2022/06/11 23:07:51;;;;;;;0.40;0.30;;;17.80;52.40;19.90;94548.00;;;;10395544;28;45190;-64
2022/06/11 23:13:17;;;;;;;0.10;0.10;;;17.80;52.40;19.90;94544.00;;;;10395223;28;45770;-64
2022/06/11 23:18:39;;;;;;;0.38;0.20;;;17.80;52.40;19.90;94526.00;;;;10394890;28;45746;-64
2022/06/11 23:24:03;;;;;;;0.50;0.30;;;17.80;52.40;19.90;94539.00;;;;10399117;28;45184;-64
2022/06/11 23:29:24;;;;;;;0.20;0.20;;;17.70;52.40;19.80;94517.00;;;;10401703;28;45176;-64
2022/06/11 23:34:46;;;;;;;0.20;0.20;;;17.70;52.30;19.80;94530.00;;;;10402252;28;45207;-64
2022/06/11 23:40:11;;;;;;;0.35;0.35;;;17.70;52.40;19.90;94531.00;;;;10400720;28;45576;-64
2022/06/11 23:45:47;;;;;;;0.35;0.22;;;17.70;52.40;19.80;94532.00;;;;10401704;28;45795;-64
2022/06/11 23:51:12;;;;;;;0.75;0.20;;;17.70;52.40;19.80;94527.00;;;;10401381;28;45152;-64
2022/06/11 23:56:36;;;;;;;0.52;0.35;;;17.70;52.40;19.80;94530.00;;;;10401184;28;45252;-64
